Layton City
, Layton
Last Weather Update:03/29/2012 12:00:00 PM
Date
ETo
ETc
Rain
Irrigation
Req
Temp
Max
Temp
Min
Temp
Avg
Avg RH
Avg Wind
Avg Solar
inches
inches
incehs
inches
F
F
F
%
%
watts/m2
02/01/2012 0.03" 0.00" 0.00" 0.00" 45.1° 26.3° 34.7° 69.5% 2.4 MPH 52.9w/m2
02/02/2012 0.05" 0.00" 0.00" 0.00" 42.3° 30.5° 35.7° 74.0% 5.0 MPH 97.3w/m2
02/03/2012 0.06" 0.00" 0.00" 0.00" 44.7° 28.3° 36.5° 48.8% 3.5 MPH 118.9w/m2
02/04/2012 0.05" 0.00" 0.00" 0.00" 42.6° 23.1° 31.7° 61.4% 2.4 MPH 124.4w/m2
02/05/2012 0.05" 0.00" 0.00" 0.00" 44.7° 22.6° 31.9° 58.6% 2.0 MPH 126.5w/m2
02/06/2012 0.04" 0.00" 0.00" 0.00" 43.3° 22.5° 31.2° 66.4% 1.9 MPH 132.4w/m2
02/07/2012 0.05" 0.00" 0.00" 0.00" 43.6° 23.1° 33.4° 50.7% 2.6 MPH 144.5w/m2
02/08/2012 0.03" 0.00" 0.00" 0.00" 42.9° 24.4° 34.8° 66.2% 1.8 MPH 68.5w/m2
02/09/2012 0.03" 0.00" 0.00" 0.00" 42.5° 33.1° 37.9° 81.3% 1.2 MPH 59.4w/m2
02/10/2012 0.05" 0.00" 0.00" 0.00" 53.1° 34.5° 41.5° 72.4% 1.6 MPH 93.1w/m2
02/11/2012 0.04" 0.00" 0.00" 0.00" 52.7° 32.0° 40.7° 64.0% 2.6 MPH 67.3w/m2
02/12/2012 0.01" 0.00" 0.08" -0.06" 41.1° 33.1° 36.7° 88.5% 2.1 MPH 20.9w/m2
02/13/2012 0.06" 0.00" 0.02" -0.02" 48.2° 33.0° 38.4° 76.5% 1.9 MPH 135.0w/m2
02/14/2012 0.05" 0.00" 0.00" 0.00" 44.4° 31.1° 37.2° 71.0% 2.2 MPH 140.4w/m2
02/15/2012 0.04" 0.00" 0.07" -0.06" 43.8° 28.3° 35.3° 82.5% 2.7 MPH 87.8w/m2
02/16/2012 0.06" 0.00" 0.01" -0.01" 41.2° 26.1° 32.3° 74.9% 2.5 MPH 156.4w/m2
02/17/2012 0.04" 0.00" 0.00" 0.00" 42.5° 25.5° 32.7° 64.5% 1.8 MPH 102.3w/m2
02/18/2012 0.06" 0.00" 0.00" 0.00" 45.9° 24.9° 35.2° 65.3% 4.2 MPH 126.0w/m2
02/19/2012 0.04" 0.00" 0.04" -0.03" 34.7° 27.6° 30.4° 68.0% 4.0 MPH 107.5w/m2
02/20/2012 0.06" 0.00" 0.00" 0.00" 38.2° 22.4° 30.9° 65.4% 4.5 MPH 148.3w/m2
02/21/2012 0.04" 0.00" 0.01" -0.01" 44.8° 32.9° 38.2° 71.1% 4.5 MPH 63.8w/m2
02/22/2012 0.08" 0.00" 0.00" 0.00" 56.5° 40.0° 48.1° 57.7% 4.8 MPH 98.2w/m2
02/23/2012 0.00" 0.00" 0.00" 0.00" 50.0° 44.4° 46.0° 59.2% 13.7 MPH 0.0w/m2
02/24/2012 0.08" 0.00" 0.00" 0.00" 46.1° 23.3° 34.6° 47.0% 3.6 MPH 171.3w/m2
02/25/2012 0.08" 0.00" 0.00" 0.00" 44.3° 25.5° 34.8° 45.1% 8.4 MPH 150.2w/m2
02/26/2012 0.06" 0.00" 0.00" 0.00" 37.6° 23.7° 30.2° 42.2% 3.1 MPH 169.4w/m2
02/27/2012 0.05" 0.00" 0.00" 0.00" 46.1° 27.4° 36.8° 45.2% 3.0 MPH 78.9w/m2
02/28/2012 0.04" 0.00" 0.01" -0.01" 40.4° 30.2° 33.6° 74.1% 3.0 MPH 89.6w/m2
02/29/2012 0.05" 0.00" 0.00" 0.00" 44.2° 26.1° 34.7° 71.9% 9.3 MPH 51.9w/m2
Totals: 1.38" 0.00" 0.24" -0.19" 56.5° 22.4° 35.7° 64.9% 3.7 MPH 102.9w/m2